Time;durP1;ratioP1;P1;durP2;ratioP2;P2;SDS_P1;SDS_P2;PMS_P1;PMS_P2;Temp;Humidity;BMP_temperature;BMP_pressure;BME280_temperature;BME280_humidity;BME280_pressure;Samples;Min_cycle;Max_cycle;Signal;HPM_P1;HPM_P2
2023/04/21 00:00:14;;;;;;;21.30;3.90;;;;;;;8.65;73.06;99376.03;109094;1254;60236;-79
2023/04/21 00:02:42;;;;;;;17.20;4.50;;;;;;;8.69;72.79;99379.48;108942;1257;73570;-80
2023/04/21 00:05:09;;;;;;;16.70;4.30;;;;;;;8.66;72.90;99375.98;109142;1253;70391;-79
2023/04/21 00:07:39;;;;;;;12.30;4.10;;;;;;;8.60;72.89;99376.36;109219;1254;72504;-76
2023/04/21 00:10:07;;;;;;;14.20;4.40;;;;;;;8.55;73.35;99372.89;109202;1253;59916;-79
2023/04/21 00:12:37;;;;;;;11.80;3.60;;;;;;;8.50;73.26;99375.05;109094;1254;59528;-72
2023/04/21 00:15:08;;;;;;;17.90;4.70;;;;;;;8.45;73.13;99376.93;109143;1254;73496;-74
2023/04/21 00:17:35;;;;;;;10.90;2.90;;;;;;;8.41;72.87;99369.71;108537;1260;69384;-75
2023/04/21 00:20:03;;;;;;;10.90;3.90;;;;;;;8.49;72.80;99372.48;108178;1254;70906;-75
2023/04/21 00:22:31;;;;;;;14.80;4.30;;;;;;;8.52;72.98;99373.91;108993;1254;60385;-76
2023/04/21 00:24:58;;;;;;;16.40;4.20;;;;;;;8.46;73.28;99371.67;109060;1254;60475;-75
2023/04/21 00:27:25;;;;;;;15.80;4.10;;;;;;;8.40;73.26;99371.09;109251;1253;72835;-74
2023/04/21 00:29:51;;;;;;;14.70;4.40;;;;;;;8.34;73.09;99371.33;109166;1253;69502;-75
2023/04/21 00:32:18;;;;;;;11.90;4.60;;;;;;;8.29;73.48;99370.85;109164;1254;71475;-76
2023/04/21 00:34:45;;;;;;;14.60;3.90;;;;;;;8.21;73.48;99367.23;108953;1254;60264;-75
2023/04/21 00:37:14;;;;;;;13.90;4.00;;;;;;;8.16;73.69;99365.73;108780;1254;58109;-76
2023/04/21 00:39:43;;;;;;;13.90;3.80;;;;;;;8.19;73.81;99364.13;108962;1253;73862;-76
2023/04/21 00:42:10;;;;;;;13.80;3.90;;;;;;;8.21;73.84;99366.88;108798;1254;69196;-77
2023/04/21 00:44:37;;;;;;;16.40;4.40;;;;;;;8.17;73.85;99362.36;108426;1253;72891;-76
2023/04/21 00:47:04;;;;;;;12.20;4.00;;;;;;;8.13;73.96;99361.52;108563;1256;60476;-75
2023/04/21 00:49:32;;;;;;;13.00;3.60;;;;;;;8.09;73.83;99367.60;108477;1254;59327;-77
2023/04/21 00:51:58;;;;;;;9.20;4.20;;;;;;;8.05;74.06;99367.50;108491;1254;72859;-75
2023/04/21 00:54:25;;;;;;;13.20;3.60;;;;;;;8.02;73.99;99373.60;108330;1253;70190;-74
2023/04/21 00:56:54;;;;;;;14.80;3.70;;;;;;;7.99;74.05;99370.82;108615;1253;72635;-78
2023/04/21 00:59:20;;;;;;;17.70;3.80;;;;;;;8.04;73.87;99365.96;108712;1253;61597;-73
2023/04/21 01:01:47;;;;;;;14.60;3.50;;;;;;;8.09;73.91;99364.79;108513;1253;60357;-73
2023/04/21 01:04:14;;;;;;;18.40;4.00;;;;;;;8.06;74.14;99362.77;108626;1253;72882;-73
2023/04/21 01:06:41;;;;;;;13.80;3.90;;;;;;;8.02;74.03;99365.86;108102;1256;70193;-75
2023/04/21 01:09:08;;;;;;;11.90;3.80;;;;;;;7.99;74.20;99364.30;108367;1254;70303;-74
2023/04/21 01:11:37;;;;;;;18.80;4.50;;;;;;;7.95;74.44;99363.10;108432;1253;61243;-75
2023/04/21 01:14:07;;;;;;;15.10;4.10;;;;;;;7.93;74.49;99365.99;108156;1255;60417;-73
2023/04/21 01:16:34;;;;;;;9.70;3.20;;;;;;;8.00;74.48;99362.41;107828;1254;73190;-75
2023/04/21 01:19:01;;;;;;;13.10;4.70;;;;;;;8.03;74.48;99357.66;107911;1256;70040;-76
2023/04/21 01:21:28;;;;;;;18.70;4.20;;;;;;;7.99;74.40;99353.69;107999;1254;70947;-74
2023/04/21 01:23:54;;;;;;;13.30;4.30;;;;;;;7.95;74.82;99357.63;108024;1253;60508;-75
2023/04/21 01:26:21;;;;;;;14.30;4.10;;;;;;;7.91;74.69;99357.20;107977;1255;60633;-74
2023/04/21 01:28:48;;;;;;;15.60;5.10;;;;;;;7.86;74.44;99358.38;106438;1258;72682;-75
2023/04/21 01:31:15;;;;;;;16.40;4.70;;;;;;;7.81;74.82;99352.04;105618;1262;69445;-75
2023/04/21 01:33:43;;;;;;;16.10;3.30;;;;;;;7.77;74.72;99357.44;105918;1256;72721;-77
2023/04/21 01:36:10;;;;;;;13.60;3.70;;;;;;;7.81;74.78;99355.04;105967;1255;61142;-75
2023/04/21 01:38:38;;;;;;;15.80;4.70;;;;;;;7.84;74.79;99354.52;105966;1256;60359;-76
2023/04/21 01:41:05;;;;;;;20.30;4.30;;;;;;;7.80;74.95;99352.69;105823;1255;73500;-74
2023/04/21 01:43:32;;;;;;;14.80;4.40;;;;;;;7.76;74.81;99352.20;105750;1254;69816;-75
2023/04/21 01:45:59;;;;;;;17.50;4.20;;;;;;;7.71;74.86;99350.45;105901;1257;73632;-73
2023/04/21 01:48:25;;;;;;;12.30;3.70;;;;;;;7.65;75.05;99351.58;105922;1259;60510;-76
2023/04/21 01:50:52;;;;;;;13.10;3.60;;;;;;;7.58;75.11;99348.71;106059;1256;61212;-74
2023/04/21 01:53:19;;;;;;;17.00;3.50;;;;;;;7.54;75.21;99348.35;106023;1254;73426;-75
2023/04/21 01:55:46;;;;;;;20.60;4.70;;;;;;;7.59;74.98;99345.44;105793;1253;69473;-76
2023/04/21 01:58:13;;;;;;;13.50;3.40;;;;;;;7.64;74.92;99343.41;105761;1259;72769;-75
2023/04/21 02:00:40;;;;;;;19.50;4.20;;;;;;;7.60;75.03;99344.29;105622;1253;60540;-78
2023/04/21 02:03:06;;;;;;;13.60;4.20;;;;;;;7.57;75.24;99340.77;105813;1254;60646;-75
2023/04/21 02:05:34;;;;;;;15.00;4.50;;;;;;;7.53;75.43;99338.89;105553;1254;72975;-73
2023/04/21 02:08:01;;;;;;;17.80;4.50;;;;;;;7.51;75.42;99338.25;105750;1256;71580;-76
2023/04/21 02:10:32;;;;;;;14.30;4.40;;;;;;;7.46;75.60;99335.69;106072;1257;72834;-76
2023/04/21 02:13:01;;;;;;;13.30;4.00;;;;;;;7.43;75.80;99332.84;106581;1253;61082;-74
2023/04/21 02:15:49;;;;;;;14.70;3.30;;;;;;;7.54;75.46;99329.49;106731;1260;60386;-75
2023/04/21 02:18:28;;;;;;;18.70;4.30;;;;;;;7.58;75.49;99323.27;107037;1262;76137;-75
2023/04/21 02:21:03;;;;;;;14.30;4.10;;;;;;;7.55;75.58;99313.08;107166;1256;70188;-74
2023/04/21 02:23:55;;;;;;;12.40;4.00;;;;;;;7.52;75.64;99311.11;106817;1253;71365;-74
2023/04/21 02:26:31;;;;;;;13.40;3.30;;;;;;;7.51;75.67;99311.94;106920;1253;60354;-75
2023/04/21 02:29:15;;;;;;;17.90;4.30;;;;;;;7.51;75.86;99311.66;106861;1259;59276;-72
2023/04/21 02:31:54;;;;;;;12.90;3.60;;;;;;;7.51;75.89;99316.35;106663;1260;75015;-75
2023/04/21 02:34:53;;;;;;;13.70;3.70;;;;;;;7.63;75.51;99317.63;106839;1253;69974;-76
2023/04/21 02:37:49;;;;;;;14.30;3.30;;;;;;;7.66;75.30;99315.82;106418;1256;71366;-77
2023/04/21 02:40:22;;;;;;;26.00;4.30;;;;;;;7.64;75.32;99317.63;106599;1259;60384;-74
2023/04/21 02:42:52;;;;;;;13.50;4.60;;;;;;;7.62;75.42;99313.92;106521;1256;61439;-75
2023/04/21 02:45:32;;;;;;;12.70;3.90;;;;;;;7.60;75.35;99311.30;106487;1255;74330;-75
2023/04/21 02:48:10;;;;;;;14.60;3.50;;;;;;;7.59;75.26;99308.63;106941;1253;70646;-73
2023/04/21 02:50:56;;;;;;;15.80;3.70;;;;;;;7.57;75.24;99306.94;106598;1257;72616;-73
2023/04/21 02:53:30;;;;;;;18.40;3.90;;;;;;;7.56;75.19;99306.34;106573;1257;60842;-73
2023/04/21 02:55:57;;;;;;;14.00;3.60;;;;;;;7.65;74.90;99304.14;105798;1259;61824;-77
2023/04/21 02:58:24;;;;;;;12.10;2.90;;;;;;;7.71;74.82;99303.40;105928;1257;72890;-75
2023/04/21 03:00:51;;;;;;;18.70;4.10;;;;;;;7.67;74.75;99305.67;105858;1258;68441;-76
2023/04/21 03:03:18;;;;;;;16.30;4.10;;;;;;;7.65;74.75;99309.77;105723;1259;73857;-75
2023/04/21 03:05:45;;;;;;;12.00;3.80;;;;;;;7.63;75.04;99309.85;105543;1256;221953;-74
2023/04/21 03:09:48;;;;;;;22.50;4.80;;;;;;;7.61;75.30;99309.36;102569;1294;602451;-73
2023/04/21 03:12:16;;;;;;;15.40;4.10;;;;;;;7.58;75.36;99309.67;105455;1260;59484;-72
2023/04/21 03:14:44;;;;;;;16.10;3.50;;;;;;;7.56;75.37;99309.30;105561;1259;61608;-72
2023/04/21 03:17:10;;;;;;;11.30;3.90;;;;;;;7.64;75.33;99308.35;105455;1261;69863;-72
2023/04/21 03:19:37;;;;;;;18.10;4.10;;;;;;;7.68;75.16;99308.42;105579;1260;69615;-75
2023/04/21 03:22:05;;;;;;;15.40;4.20;;;;;;;7.64;75.30;99308.98;105366;1263;172808;-75
2023/04/21 03:24:32;;;;;;;15.60;4.30;;;;;;;7.61;75.32;99310.89;105594;1257;60353;-74
2023/04/21 03:27:00;;;;;;;15.00;4.90;;;;;;;7.59;75.37;99311.60;105595;1257;59410;-73
2023/04/21 03:29:27;;;;;;;14.70;4.90;;;;;;;7.57;75.40;99309.19;105607;1262;73714;-71
2023/04/21 03:31:54;;;;;;;18.70;5.00;;;;;;;7.55;75.30;99310.66;105857;1254;70675;-74
2023/04/21 03:34:21;;;;;;;15.90;4.90;;;;;;;7.51;75.49;99311.08;105691;1257;73548;-75
2023/04/21 03:36:48;;;;;;;17.80;3.90;;;;;;;7.49;75.79;99310.70;105611;1261;59975;-73
2023/04/21 03:39:15;;;;;;;16.20;4.30;;;;;;;7.58;75.58;99310.20;105629;1257;59759;-75
2023/04/21 03:41:47;;;;;;;21.70;6.90;;;;;;;7.64;75.49;99308.65;105796;1256;73112;-77
2023/04/21 03:44:13;;;;;;;18.80;6.10;;;;;;;7.60;75.89;99307.27;105700;1257;71439;-75
2023/04/21 03:46:40;;;;;;;19.50;5.80;;;;;;;7.58;75.88;99311.02;106051;1252;73345;-75
2023/04/21 03:49:07;;;;;;;18.90;6.00;;;;;;;7.56;75.84;99306.10;106112;1253;59676;-75
2023/04/21 03:51:34;;;;;;;18.60;6.00;;;;;;;7.55;75.68;99306.10;106032;1252;59703;-73
2023/04/21 03:54:00;;;;;;;14.60;4.70;;;;;;;7.53;75.56;99305.76;105989;1253;71225;-76
2023/04/21 03:56:27;;;;;;;17.60;6.00;;;;;;;7.51;75.65;99306.01;106005;1253;69576;-74
2023/04/21 03:58:54;;;;;;;15.30;5.10;;;;;;;7.50;75.80;99300.95;106044;1253;73420;-76
2023/04/21 04:01:21;;;;;;;15.30;4.80;;;;;;;7.60;75.56;99297.59;106111;1255;60965;-75
2023/04/21 04:03:48;;;;;;;16.70;4.80;;;;;;;7.70;75.49;99293.95;106871;1254;61975;-75
2023/04/21 04:06:15;;;;;;;15.20;5.60;;;;;;;7.67;75.38;99293.98;106822;1254;73124;-75
2023/04/21 04:08:42;;;;;;;11.80;5.30;;;;;;;7.65;75.46;99294.30;106332;1256;71687;-75
2023/04/21 04:11:09;;;;;;;17.60;4.60;;;;;;;7.65;75.33;99292.33;106061;1257;73834;-74
2023/04/21 04:13:36;;;;;;;17.40;5.90;;;;;;;7.67;75.52;99295.49;106051;1253;61205;-76
2023/04/21 04:16:03;;;;;;;15.20;5.70;;;;;;;7.67;75.71;99292.27;105913;1253;59763;-75
2023/04/21 04:18:30;;;;;;;16.00;5.60;;;;;;;7.68;75.71;99294.31;106152;1257;73340;-76
2023/04/21 04:20:57;;;;;;;12.40;4.50;;;;;;;7.79;75.58;99297.62;106072;1257;69396;-74
2023/04/21 04:23:24;;;;;;;17.20;6.00;;;;;;;7.87;75.33;99297.14;105863;1258;71881;-75
2023/04/21 04:25:51;;;;;;;20.00;5.60;;;;;;;7.87;75.69;99299.23;105852;1256;60035;-78
2023/04/21 04:28:18;;;;;;;15.00;5.90;;;;;;;7.87;76.04;99299.89;105868;1257;61607;-75
2023/04/21 04:30:45;;;;;;;20.90;6.00;;;;;;;7.87;76.01;99305.15;105814;1254;73305;-76
2023/04/21 04:33:11;;;;;;;17.50;5.70;;;;;;;7.88;75.67;99304.59;105784;1253;69241;-77
2023/04/21 04:35:38;;;;;;;21.20;5.90;;;;;;;7.87;75.74;99304.65;105965;1254;71680;-76
2023/04/21 04:38:06;;;;;;;20.80;5.30;;;;;;;7.86;75.89;99300.48;106023;1253;61392;-74
2023/04/21 04:40:33;;;;;;;15.00;4.90;;;;;;;7.88;75.67;99303.14;105960;1253;60653;-74
2023/04/21 04:43:01;;;;;;;15.40;4.80;;;;;;;8.01;75.52;99308.12;105918;1257;73245;-75
2023/04/21 04:45:31;;;;;;;15.10;5.40;;;;;;;8.14;75.39;99306.06;106089;1253;70562;-76
2023/04/21 04:47:59;;;;;;;17.80;5.70;;;;;;;8.19;75.37;99308.02;106119;1254;71829;-75
2023/04/21 04:50:26;;;;;;;17.40;5.40;;;;;;;8.25;75.72;99309.32;106229;1253;59667;-74
2023/04/21 04:52:52;;;;;;;15.40;4.80;;;;;;;8.32;75.67;99309.92;106031;1254;60250;-74
2023/04/21 04:55:21;;;;;;;13.20;5.50;;;;;;;8.42;75.45;99312.30;105998;1254;74088;-74
2023/04/21 04:57:49;;;;;;;17.10;5.50;;;;;;;8.51;75.40;99312.39;105995;1254;71238;-77
2023/04/21 05:00:16;;;;;;;14.90;5.50;;;;;;;8.60;75.06;99313.05;106084;1253;72695;-75
2023/04/21 05:02:42;;;;;;;16.70;5.00;;;;;;;8.72;75.24;99315.98;105736;1253;62809;-76
2023/04/21 05:05:09;;;;;;;14.40;4.70;;;;;;;8.95;74.59;99312.87;105955;1257;59650;-76
2023/04/21 05:07:37;;;;;;;23.70;5.00;;;;;;;9.18;73.93;99315.16;105842;1257;73632;-75
2023/04/21 05:10:04;;;;;;;14.80;4.60;;;;;;;9.31;73.57;99317.14;106086;1253;70829;-74
2023/04/21 05:12:31;;;;;;;21.00;5.30;;;;;;;9.43;73.26;99317.86;106189;1255;73405;-78
2023/04/21 05:14:58;;;;;;;15.90;5.10;;;;;;;9.57;71.83;99317.09;106007;1256;60469;-77
2023/04/21 05:17:26;;;;;;;14.10;4.40;;;;;;;9.68;71.70;99318.44;105915;1255;61128;-74
2023/04/21 05:19:52;;;;;;;16.30;4.90;;;;;;;9.78;70.94;99324.17;105807;1253;73610;-74
2023/04/21 05:22:19;;;;;;;14.60;5.40;;;;;;;9.85;70.31;99322.96;105953;1252;68904;-76
2023/04/21 05:24:47;;;;;;;18.00;4.90;;;;;;;9.93;70.30;99321.17;105929;1253;73412;-76
2023/04/21 05:27:13;;;;;;;16.20;5.40;;;;;;;9.99;70.07;99318.27;106035;1253;60104;-77
2023/04/21 05:29:40;;;;;;;19.30;5.00;;;;;;;10.04;69.74;99315.09;105867;1254;61356;-77
2023/04/21 05:32:08;;;;;;;12.90;4.60;;;;;;;10.06;68.92;99314.59;106230;1257;74300;-73
2023/04/21 05:34:35;;;;;;;18.50;4.20;;;;;;;10.04;68.44;99318.77;106178;1253;70808;-81
2023/04/21 05:37:02;;;;;;;13.80;4.40;;;;;;;10.02;68.48;99316.14;106041;1253;73532;-79
2023/04/21 05:39:29;;;;;;;13.30;4.80;;;;;;;10.00;68.16;99316.91;106057;1254;59619;-79
2023/04/21 05:41:56;;;;;;;14.10;4.50;;;;;;;9.97;67.94;99308.07;106209;1259;59673;-80
2023/04/21 05:44:24;;;;;;;14.70;5.50;;;;;;;9.96;67.86;99303.46;106404;1253;70958;-76
2023/04/21 05:46:51;;;;;;;17.00;5.30;;;;;;;9.99;67.74;99303.31;106537;1256;69471;-79
2023/04/21 05:49:18;;;;;;;24.70;5.50;;;;;;;10.04;67.69;99299.91;106804;1253;72905;-82
2023/04/21 05:51:45;;;;;;;13.10;4.60;;;;;;;10.11;67.29;99298.76;106680;1252;60071;-81
2023/04/21 05:54:12;;;;;;;19.70;4.00;;;;;;;10.19;67.17;99296.02;107366;1253;60067;-81
2023/04/21 05:56:39;;;;;;;22.90;5.00;;;;;;;10.28;66.72;99295.90;107412;1252;72792;-80
2023/04/21 05:59:06;;;;;;;16.40;4.70;;;;;;;10.38;66.43;99296.42;106374;1255;69494;-77
2023/04/21 06:01:32;;;;;;;16.10;4.20;;;;;;;10.45;66.14;99293.48;105966;1257;71947;-74
2023/04/21 06:03:59;;;;;;;16.10;4.10;;;;;;;10.52;65.50;99295.80;107088;1253;59488;-78
2023/04/21 06:06:27;;;;;;;15.50;4.30;;;;;;;10.60;65.00;99295.41;106318;1256;59698;-74
2023/04/21 06:08:54;;;;;;;16.40;3.80;;;;;;;10.69;64.46;99298.69;106352;1253;73894;-78
2023/04/21 06:11:21;;;;;;;13.80;4.50;;;;;;;10.76;64.39;99300.27;106416;1253;69463;-76
2023/04/21 06:13:49;;;;;;;9.70;3.70;;;;;;;10.84;64.60;99300.90;106027;1253;73657;-76
2023/04/21 06:16:16;;;;;;;13.80;4.40;;;;;;;10.93;64.01;99299.00;106172;1253;61146;-77
2023/04/21 06:18:42;;;;;;;13.90;4.20;;;;;;;11.02;64.33;99296.39;106354;1253;59882;-78
2023/04/21 06:21:09;;;;;;;16.70;4.20;;;;;;;11.12;63.83;99295.91;106045;1253;73261;-76
2023/04/21 06:23:36;;;;;;;16.70;3.90;;;;;;;11.20;63.30;99297.51;106030;1253;70838;-75
2023/04/21 06:26:05;;;;;;;21.50;4.10;;;;;;;11.29;62.59;99293.56;106112;1253;73972;-75
2023/04/21 06:28:33;;;;;;;14.10;3.50;;;;;;;11.35;61.99;99291.05;106290;1255;59747;-74
2023/04/21 06:31:00;;;;;;;14.20;3.70;;;;;;;11.38;61.84;99286.91;106905;1253;59605;-75
2023/04/21 06:33:28;;;;;;;21.30;4.20;;;;;;;11.42;61.77;99289.59;106601;1256;73859;-76
2023/04/21 06:35:55;;;;;;;12.70;3.90;;;;;;;11.46;61.08;99291.10;106470;1253;70567;-77
2023/04/21 06:38:22;;;;;;;17.10;5.30;;;;;;;11.47;60.83;99289.69;106299;1253;73659;-76
2023/04/21 06:40:49;;;;;;;11.80;3.60;;;;;;;11.48;60.85;99288.92;106431;1253;59731;-76
2023/04/21 06:43:16;;;;;;;11.90;3.80;;;;;;;11.50;60.44;99288.05;106349;1258;59560;-75
2023/04/21 06:45:43;;;;;;;15.70;4.60;;;;;;;11.51;60.44;99290.36;106594;1253;73928;-77
2023/04/21 06:48:10;;;;;;;21.40;4.20;;;;;;;11.56;60.67;99290.58;106250;1255;70397;-76
2023/04/21 06:50:37;;;;;;;14.80;3.70;;;;;;;11.61;60.33;99291.45;106608;1252;71422;-77
2023/04/21 06:53:04;;;;;;;16.80;4.20;;;;;;;11.66;60.28;99294.02;106482;1253;59599;-75
2023/04/21 06:55:31;;;;;;;16.40;3.90;;;;;;;11.72;60.00;99292.73;106592;1253;60374;-75
2023/04/21 06:57:58;;;;;;;19.00;4.20;;;;;;;11.77;59.59;99295.88;106830;1254;72050;-75
2023/04/21 07:00:25;;;;;;;16.00;4.20;;;;;;;11.83;59.76;99292.66;106792;1257;70104;-77
2023/04/21 07:02:52;;;;;;;20.20;5.00;;;;;;;11.90;59.49;99293.39;106748;1257;72010;-74
2023/04/21 07:05:19;;;;;;;13.10;4.60;;;;;;;11.98;59.39;99293.85;106552;1253;60404;-78
2023/04/21 07:07:49;;;;;;;13.70;4.60;;;;;;;12.03;58.91;99288.61;106420;1253;61779;-75
2023/04/21 07:10:18;;;;;;;18.40;4.30;;;;;;;12.10;59.18;99290.91;106228;1253;70700;-74
2023/04/21 07:12:46;;;;;;;16.90;4.20;;;;;;;12.17;59.14;99286.02;106534;1257;71365;-75
2023/04/21 07:15:13;;;;;;;18.00;4.60;;;;;;;12.27;59.00;99283.95;106518;1256;71039;-75
2023/04/21 07:17:40;;;;;;;13.50;4.70;;;;;;;12.36;58.82;99281.70;106552;1253;60893;-75
2023/04/21 07:20:07;;;;;;;10.90;4.00;;;;;;;12.46;58.64;99282.35;106166;1253;60435;-76
2023/04/21 07:22:36;;;;;;;14.60;4.40;;;;;;;12.54;58.68;99289.98;106311;1253;73892;-75
2023/04/21 07:25:06;;;;;;;23.00;4.50;;;;;;;12.63;58.04;99287.41;106819;1253;68508;-75
2023/04/21 07:27:37;;;;;;;13.60;4.00;;;;;;;12.71;58.04;99283.14;106421;1256;72637;-75
2023/04/21 07:30:04;;;;;;;17.30;4.20;;;;;;;12.78;57.25;99285.50;106391;1254;62536;-75
2023/04/21 07:32:32;;;;;;;15.50;3.90;;;;;;;12.83;56.97;99287.45;106361;1253;60575;-74
2023/04/21 07:35:00;;;;;;;17.10;4.10;;;;;;;12.89;57.47;99283.89;106288;1254;72287;-76
2023/04/21 07:37:27;;;;;;;11.00;3.50;;;;;;;12.97;57.33;99286.52;106049;1253;70985;-74
2023/04/21 07:39:54;;;;;;;13.90;5.00;;;;;;;13.06;57.13;99287.77;106371;1253;73041;-75
2023/04/21 07:42:21;;;;;;;16.90;3.70;;;;;;;13.12;56.94;99293.19;106291;1257;60464;-72
2023/04/21 07:44:48;;;;;;;12.70;3.60;;;;;;;13.17;56.71;99294.20;106436;1253;60482;-72
2023/04/21 07:47:15;;;;;;;15.70;4.40;;;;;;;13.17;56.46;99292.86;106672;1253;75020;-75
2023/04/21 07:49:42;;;;;;;17.00;4.00;;;;;;;13.17;56.57;99291.25;106319;1257;71081;-74
2023/04/21 07:52:09;;;;;;;15.50;4.30;;;;;;;13.20;56.46;99289.34;106093;1258;70466;-72
2023/04/21 07:54:36;;;;;;;16.30;3.80;;;;;;;13.21;56.64;99288.48;106700;1258;61322;-75
2023/04/21 07:57:03;;;;;;;19.10;3.60;;;;;;;13.23;56.75;99288.13;106631;1252;60762;-74
2023/04/21 07:59:32;;;;;;;14.00;4.10;;;;;;;13.29;57.01;99287.48;106822;1258;73478;-81
2023/04/21 08:01:59;;;;;;;13.10;4.20;;;;;;;13.39;56.55;99288.00;106382;1253;69322;-77
2023/04/21 08:04:26;;;;;;;16.20;4.60;;;;;;;13.50;56.56;99289.29;106463;1253;73865;-76
2023/04/21 08:06:53;;;;;;;16.00;3.90;;;;;;;13.62;56.06;99289.91;106652;1253;61410;-74
2023/04/21 08:09:20;;;;;;;15.30;4.10;;;;;;;13.71;55.89;99294.75;106409;1253;61262;-73
2023/04/21 08:11:47;;;;;;;17.80;4.00;;;;;;;13.79;55.60;99289.45;106084;1260;72171;-74
2023/04/21 08:14:15;;;;;;;16.50;3.80;;;;;;;13.90;55.38;99289.84;106218;1253;69804;-73
2023/04/21 08:16:42;;;;;;;15.40;3.90;;;;;;;14.02;55.17;99292.11;106267;1254;72893;-77
2023/04/21 08:19:08;;;;;;;12.80;3.50;;;;;;;14.13;55.47;99290.15;106539;1255;61130;-75
2023/04/21 08:21:36;;;;;;;13.10;3.60;;;;;;;14.26;55.27;99283.27;106252;1253;60487;-73
2023/04/21 08:24:03;;;;;;;11.60;3.80;;;;;;;14.38;55.23;99281.89;106341;1253;73668;-73
2023/04/21 08:26:32;;;;;;;14.90;4.20;;;;;;;14.53;54.86;99284.69;106045;1253;71666;-73
2023/04/21 08:29:00;;;;;;;13.70;3.80;;;;;;;14.68;54.41;99290.05;105966;1260;71710;-74
2023/04/21 08:31:30;;;;;;;14.50;4.00;;;;;;;14.83;54.23;99288.44;106167;1256;60428;-73
2023/04/21 08:33:57;;;;;;;13.30;3.40;;;;;;;14.97;53.44;99291.52;106070;1252;60662;-73
2023/04/21 08:36:30;;;;;;;13.50;3.60;;;;;;;15.15;52.85;99293.73;106297;1256;72955;-73
2023/04/21 08:38:58;;;;;;;11.90;2.90;;;;;;;15.30;51.77;99290.95;106160;1253;69653;-75
2023/04/21 08:41:25;;;;;;;18.10;3.80;;;;;;;15.41;51.37;99290.02;106676;1253;71684;-73
2023/04/21 08:43:52;;;;;;;13.70;4.40;;;;;;;15.50;50.89;99299.33;106273;1253;60542;-74
2023/04/21 08:46:19;;;;;;;23.20;4.20;;;;;;;15.61;50.70;99290.66;106443;1253;60337;-78
2023/04/21 08:48:47;;;;;;;14.10;3.40;;;;;;;15.70;50.59;99300.09;106802;1253;73521;-74
2023/04/21 08:51:20;;;;;;;13.40;2.90;;;;;;;15.82;50.97;99301.96;106713;1251;71423;-76
2023/04/21 08:53:47;;;;;;;9.30;3.10;;;;;;;15.97;50.32;99298.02;106354;1253;73885;-73
2023/04/21 08:56:14;;;;;;;13.50;3.60;;;;;;;16.03;49.42;99305.29;106237;1254;60476;-76
2023/04/21 08:58:41;;;;;;;12.50;3.30;;;;;;;16.05;48.74;99296.62;106144;1256;61561;-75
2023/04/21 09:01:08;;;;;;;16.00;3.70;;;;;;;16.04;49.20;99295.97;106168;1253;74615;-77
2023/04/21 09:03:37;;;;;;;11.10;3.20;;;;;;;16.06;49.91;99301.23;106298;1253;71126;-74
2023/04/21 09:06:08;;;;;;;16.30;3.70;;;;;;;16.15;50.04;99300.36;106788;1251;73972;-74
2023/04/21 09:08:38;;;;;;;15.30;3.60;;;;;;;16.28;49.86;99297.91;106808;1253;60426;-76
2023/04/21 09:11:05;;;;;;;13.40;3.30;;;;;;;16.40;49.03;99292.40;106794;1255;60368;-76
2023/04/21 09:13:34;;;;;;;11.20;3.50;;;;;;;16.49;49.26;99296.54;106785;1253;72904;-74
2023/04/21 09:16:03;;;;;;;8.70;3.30;;;;;;;16.66;49.55;99303.88;106304;1253;71691;-74
2023/04/21 09:18:35;;;;;;;10.60;3.50;;;;;;;16.94;48.62;99303.60;106468;1253;73328;-74
2023/04/21 09:21:08;;;;;;;12.70;3.50;;;;;;;17.18;48.75;99303.29;106226;1253;61504;-76
2023/04/21 09:23:40;;;;;;;10.20;3.10;;;;;;;17.37;48.51;99307.80;106176;1253;60398;-73
2023/04/21 09:26:07;;;;;;;19.70;3.20;;;;;;;17.60;48.13;99312.96;106223;1253;73819;-73
2023/04/21 09:28:34;;;;;;;6.70;2.90;;;;;;;17.71;47.38;99313.62;106179;1257;69731;-74
2023/04/21 09:31:01;;;;;;;8.40;3.40;;;;;;;17.72;46.78;99318.06;106176;1253;71690;-75
2023/04/21 09:33:32;;;;;;;11.00;2.80;;;;;;;17.70;46.67;99320.61;105906;1255;61493;-74
2023/04/21 09:36:26;;;;;;;10.00;3.00;;;;;;;17.56;46.62;99321.06;105846;1257;61197;-73
2023/04/21 09:38:57;;;;;;;8.30;3.20;;;;;;;17.29;47.11;99319.70;105960;1253;73187;-74
2023/04/21 09:41:44;;;;;;;12.90;3.10;;;;;;;16.99;47.89;99326.38;105885;1256;71038;-74
2023/04/21 09:44:11;;;;;;;14.10;3.10;;;;;;;16.93;48.51;99330.39;105848;1257;72611;-73
2023/04/21 09:46:38;;;;;;;7.60;3.00;;;;;;;16.93;48.37;99329.12;105858;1254;61841;-74
2023/04/21 09:49:05;;;;;;;8.30;3.50;;;;;;;16.89;48.39;99334.39;105931;1254;60856;-75
2023/04/21 09:51:32;;;;;;;11.00;3.60;;;;;;;16.84;48.35;99333.19;105967;1257;73275;-74
2023/04/21 09:54:20;;;;;;;8.80;3.10;;;;;;;16.78;48.18;99331.32;106027;1253;69925;-75
2023/04/21 09:56:52;;;;;;;11.40;2.60;;;;;;;16.67;48.71;99329.38;106110;1251;73823;-71
2023/04/21 09:59:24;;;;;;;5.90;2.90;;;;;;;16.67;48.57;99334.99;105988;1253;60326;-73
2023/04/21 10:01:51;;;;;;;10.50;3.10;;;;;;;16.57;48.69;99339.02;106119;1253;60612;-75
2023/04/21 10:04:18;;;;;;;11.20;2.80;;;;;;;16.41;48.69;99338.59;106229;1253;72841;-73
2023/04/21 10:06:46;;;;;;;8.20;3.00;;;;;;;16.20;49.32;99345.55;106151;1258;69348;-73
2023/04/21 10:09:15;;;;;;;11.30;3.70;;;;;;;16.04;49.92;99345.19;105986;1252;71744;-73
2023/04/21 10:11:42;;;;;;;14.20;3.50;;;;;;;16.02;50.13;99348.98;105809;1254;61159;-73
2023/04/21 10:14:09;;;;;;;8.60;2.50;;;;;;;16.00;50.25;99351.01;106028;1253;60434;-74
2023/04/21 10:16:38;;;;;;;5.30;2.60;;;;;;;16.06;50.34;99354.90;105889;1253;74842;-75
2023/04/21 10:19:25;;;;;;;10.90;3.10;;;;;;;16.15;50.13;99356.21;106004;1254;71120;-73
2023/04/21 10:21:56;;;;;;;11.80;3.20;;;;;;;16.05;50.10;99357.38;106000;1254;71930;-73
2023/04/21 10:24:23;;;;;;;10.80;3.00;;;;;;;15.85;50.21;99360.02;106219;1254;60520;-72
2023/04/21 10:26:50;;;;;;;8.10;3.10;;;;;;;15.69;50.60;99371.29;106096;1256;60402;-73
2023/04/21 10:29:33;;;;;;;11.50;3.30;;;;;;;15.57;50.97;99372.49;106144;1255;73060;-73
2023/04/21 10:33:00;;;;;;;14.00;4.10;;;;;;;15.37;51.52;99375.47;105906;1253;70357;-74
2023/04/21 10:35:57;;;;;;;14.50;3.90;;;;;;;15.13;52.47;99379.80;106020;1254;71653;-74
2023/04/21 10:38:42;;;;;;;11.80;3.50;;;;;;;14.98;52.63;99380.52;106068;1253;60606;-74
2023/04/21 10:41:26;;;;;;;9.70;3.80;;;;;;;14.87;52.57;99371.25;106043;1253;60529;-73
2023/04/21 10:44:01;;;;;;;10.50;4.10;;;;;;;14.74;52.28;99364.30;106075;1258;74884;-72
2023/04/21 10:46:31;;;;;;;12.00;3.50;;;;;;;14.84;52.59;99358.71;105918;1253;70752;-76
2023/04/21 10:49:08;;;;;;;13.10;2.90;;;;;;;15.25;52.40;99351.73;106001;1253;73562;-73
2023/04/21 10:52:03;;;;;;;11.00;3.30;;;;;;;15.90;51.85;99349.02;106158;1253;60399;-72
2023/04/21 10:54:44;;;;;;;9.50;3.30;;;;;;;16.58;50.16;99351.95;106060;1253;61033;-75
2023/04/21 10:57:12;;;;;;;13.60;4.00;;;;;;;17.20;49.41;99349.09;106130;1253;74725;-74
2023/04/21 10:59:40;;;;;;;13.50;4.00;;;;;;;17.64;48.31;99353.48;106067;1258;70371;-72
2023/04/21 11:02:09;;;;;;;12.40;3.60;;;;;;;17.95;47.40;99359.04;106182;1253;71949;-73
2023/04/21 11:04:46;;;;;;;13.00;4.10;;;;;;;18.19;46.60;99357.52;106398;1253;61466;-73
2023/04/21 11:07:15;;;;;;;8.10;3.50;;;;;;;18.41;46.27;99354.95;106128;1252;61550;-71
2023/04/21 11:09:43;;;;;;;14.10;3.70;;;;;;;18.57;45.98;99355.33;106235;1257;74961;-73
2023/04/21 11:12:19;;;;;;;14.10;3.60;;;;;;;18.67;45.72;99352.24;106327;1253;71557;-73
2023/04/21 11:14:48;;;;;;;11.50;3.90;;;;;;;18.69;44.91;99348.46;106377;1253;72963;-72
2023/04/21 11:17:17;;;;;;;10.00;4.30;;;;;;;18.54;45.18;99350.08;105988;1253;60471;-73
2023/04/21 11:19:48;;;;;;;13.50;4.30;;;;;;;18.47;45.01;99343.23;106242;1253;61333;-73
2023/04/21 11:22:17;;;;;;;19.60;5.10;;;;;;;18.52;44.65;99349.78;106004;1256;73097;-73
2023/04/21 11:24:45;;;;;;;22.60;4.30;;;;;;;18.45;43.88;99347.69;106114;1253;71530;-74
2023/04/21 11:27:13;;;;;;;9.70;3.40;;;;;;;18.19;43.78;99338.83;106026;1257;73391;-74
2023/04/21 11:29:40;;;;;;;17.60;4.10;;;;;;;17.92;44.25;99342.08;106116;1258;61755;-73
2023/04/21 11:32:08;;;;;;;13.20;3.90;;;;;;;17.71;44.50;99341.27;106418;1253;60441;-72